Aeroporto :
LOGIN :

Iscrizione | Disclaimer

   EN    FR    IT 

 










Sommario :    VFR   VFR Marginale   IFR   IFR Intensivo   IFR Molto Intensivo
Visibilità : 
Base nubi : 
>= 8 km
>= 3000ft
5 / 8 km
1000 / 3000 ft
1500m / 5 km
500 / 1000 ft
800 / 1500m
200 / 500 ft
< 800m
< 200 ft
Simboli :   Temporali  Nebbia  Neve Forte  Precipitazioni Forti  Vento > 20 kt
SIGMETs :   Varie  Temporali  Ghiacco  Turbolenza  Onda orograficha  Ceneri Vulcaniche







- Altitudine del aeroporto : 63 ft
- Codice IATA : BZM


EHWO - Woensdrecht Airbase

ULTIMO METAR :
  • 161655Z AUTO 01005KT 310V060 9999 SCT017 BKN020 OVC026 17/13 Q1020 WHT

METARs OBSOLETI :
  • 161625Z AUTO 01005KT 320V050 9999 BKN018 OVC021 17/13 Q1020 WHT
  • 161556Z AUTO 03004KT 330V080 9999 SCT015 BKN022 OVC080 17/13 Q1020 WHT
  • 161555Z AUTO 02004KT 300V090 9999 SCT016 OVC080 17/13 Q1020 WHT
  • 161525Z AUTO 36006KT 310V070 9999 SCT015 BKN018 BKN032 17/13 Q1020 WHT
  • 161455Z AUTO 02007KT 330V090 9999 BKN013 OVC047 17/13 Q1020 GRN
  • 161425Z AUTO 01007KT 310V050 9999 OVC010 16/13 Q1020 GRN

TAF TAF EHWO
Valido dal 16 a 09 ore il 16 a 21 ore UTC


160826Z 1609/1621 25005KT 9999 OVC035
BECMG 1610/1612 5000 -DZ BKN007 OVC014
TEMPO 1610/1616 2500 DZ SCT003 BKN004 OVC010
BECMG 1615/1618 36006KT 9999 NSW BKN030
Nessun NOTAM noto per questo aeroporto.



MetMap, La meteo Aeronautica in un colpo d'occhio ! - Copyright ORBIFLY Dicembre 2007 - Disclaimer

ORBIFLY MET'MAP TEAM :

Programmazione e sviluppo : Alexandra Zaïnal
Concezione e sviluppo : Baudouin d'Aumeries
Co-Programmazione e sviluppo : Marc-Olivier Méhu
Supporto tecnico e logistico : Manuel Goepfert
Aiuto per la traduzione : Arnaldo La Scala

Contatto : metmap@orbifly.com




FONTI E CREDITI :

   NOAA